Time,TemperatureF,DewpointF,PressureIn,WindDirection,WindDirectionDegrees,WindSpeedMPH,WindSpeedGustMPH,Humidity,HourlyPrecipIn,Conditions,Clouds,dailyrainin,SoftwareType,DateUTC
2013-01-17 00:09:00,30.5,23.2,30.15,WSW,252,4.0,4.0,74,0.00,,,0.00,Wunderground v.1.15,2013-01-17 05:09:00,
2013-01-17 00:19:00,30.6,23.3,30.15,WSW,244,3.0,3.0,74,0.00,,,0.00,Wunderground v.1.15,2013-01-17 05:19:00,
2013-01-17 00:29:00,30.6,23.3,30.16,SW,232,3.0,4.0,74,0.00,,,0.00,Wunderground v.1.15,2013-01-17 05:29:00,
2013-01-17 00:39:00,30.7,23.4,30.16,NW,312,4.0,6.0,74,0.00,,,0.00,Wunderground v.1.15,2013-01-17 05:39:00,
2013-01-17 00:49:00,30.8,23.5,30.16,SW,235,4.0,4.0,74,0.00,,,0.00,Wunderground v.1.15,2013-01-17 05:49:00,
2013-01-17 00:59:00,30.8,23.8,30.17,West,265,3.0,5.0,75,0.00,,,0.00,Wunderground v.1.15,2013-01-17 05:59:00,
2013-01-17 01:04:00,30.8,23.8,30.16,WSW,254,3.0,5.0,75,0.00,,,0.00,Wunderground v.1.15,2013-01-17 06:04:00,
2013-01-17 01:19:00,30.8,23.5,30.16,WSW,258,3.0,4.0,74,0.00,,,0.00,Wunderground v.1.15,2013-01-17 06:19:00,
2013-01-17 01:29:00,30.6,23.6,30.16,West,272,2.0,3.0,75,0.00,,,0.00,Wunderground v.1.15,2013-01-17 06:29:00,
2013-01-17 01:39:00,30.5,23.5,30.17,West,269,3.0,3.0,75,0.00,,,0.00,Wunderground v.1.15,2013-01-17 06:39:00,
2013-01-17 01:49:00,30.4,23.4,30.18,SW,231,2.0,2.0,75,0.00,,,0.00,Wunderground v.1.15,2013-01-17 06:49:00,
2013-01-17 01:59:00,30.3,23.6,30.18,SW,232,2.0,2.0,76,0.00,,,0.00,Wunderground v.1.15,2013-01-17 06:59:00,
2013-01-17 02:09:00,30.1,23.4,30.18,SW,232,1.0,3.0,76,0.00,,,0.00,Wunderground v.1.15,2013-01-17 07:09:00,
2013-01-17 02:14:00,30.0,23.7,30.18,SW,232,2.0,3.0,77,0.00,,,0.00,Wunderground v.1.15,2013-01-17 07:14:00,
2013-01-17 02:24:00,29.9,23.6,30.18,West,265,2.0,3.0,77,0.00,,,0.00,Wunderground v.1.15,2013-01-17 07:24:00,
2013-01-17 02:39:00,29.8,23.8,30.18,WSW,245,2.0,2.0,78,0.00,,,0.00,Wunderground v.1.15,2013-01-17 07:39:00,
2013-01-17 02:49:00,29.8,23.8,30.17,WSW,244,2.0,2.0,78,0.00,,,0.00,Wunderground v.1.15,2013-01-17 07:49:00,
2013-01-17 02:59:00,29.8,23.8,30.18,WSW,244,1.0,1.0,78,0.00,,,0.00,Wunderground v.1.15,2013-01-17 07:59:00,
2013-01-17 03:09:00,29.9,23.9,30.18,SW,217,2.0,2.0,78,0.00,,,0.00,Wunderground v.1.15,2013-01-17 08:09:00,
2013-01-17 03:19:00,29.9,23.9,30.18,SW,217,1.0,4.0,78,0.00,,,0.00,Wunderground v.1.15,2013-01-17 08:19:00,
2013-01-17 03:29:00,29.8,23.8,30.18,SW,217,1.0,2.0,78,0.00,,,0.00,Wunderground v.1.15,2013-01-17 08:29:00,
2013-01-17 03:39:00,29.7,23.7,30.18,SW,224,1.0,1.0,78,0.00,,,0.00,Wunderground v.1.15,2013-01-17 08:39:00,
2013-01-17 03:49:00,29.6,23.6,30.19,SW,224,1.0,1.0,78,0.00,,,0.00,Wunderground v.1.15,2013-01-17 08:49:00,
2013-01-17 03:59:00,29.5,23.8,30.18,SW,224,0.0,0.0,79,0.00,,,0.00,Wunderground v.1.15,2013-01-17 08:59:00,
2013-01-17 04:09:00,29.3,23.6,30.18,SW,224,0.0,0.0,79,0.00,,,0.00,Wunderground v.1.15,2013-01-17 09:09:00,
2013-01-17 04:19:00,29.3,23.6,30.18,SW,224,0.0,0.0,79,0.00,,,0.00,Wunderground v.1.15,2013-01-17 09:19:00,
2013-01-17 04:29:00,29.3,23.9,30.19,SW,224,0.0,0.0,80,0.00,,,0.00,Wunderground v.1.15,2013-01-17 09:29:00,
2013-01-17 04:39:00,29.2,23.8,30.19,SW,224,0.0,0.0,80,0.00,,,0.00,Wunderground v.1.15,2013-01-17 09:39:00,
2013-01-17 04:49:00,29.1,24.0,30.20,SW,224,0.0,0.0,81,0.00,,,0.00,Wunderground v.1.15,2013-01-17 09:49:00,
2013-01-17 04:59:00,29.0,23.9,30.20,SW,224,0.0,0.0,81,0.00,,,0.00,Wunderground v.1.15,2013-01-17 09:59:00,
2013-01-17 05:04:00,28.9,24.1,30.19,SW,224,0.0,0.0,82,0.00,,,0.00,Wunderground v.1.15,2013-01-17 10:04:00,
2013-01-17 05:19:00,28.5,23.7,30.20,SW,224,0.0,0.0,82,0.00,,,0.00,Wunderground v.1.15,2013-01-17 10:19:00,
2013-01-17 05:29:00,28.3,23.8,30.20,SW,224,0.0,0.0,83,0.00,,,0.00,Wunderground v.1.15,2013-01-17 10:29:00,
2013-01-17 05:39:00,28.4,23.9,30.20,SW,224,0.0,0.0,83,0.00,,,0.00,Wunderground v.1.15,2013-01-17 10:39:00,
2013-01-17 05:49:00,28.3,24.4,30.20,SW,224,0.0,0.0,85,0.00,,,0.00,Wunderground v.1.15,2013-01-17 10:49:00,
2013-01-17 05:59:00,28.1,24.2,30.19,SW,224,0.0,0.0,85,0.00,,,0.00,Wunderground v.1.15,2013-01-17 10:59:00,
2013-01-17 06:09:00,27.9,23.7,30.21,SW,224,0.0,0.0,84,0.00,,,0.00,Wunderground v.1.15,2013-01-17 11:09:00,
2013-01-17 06:19:00,27.8,24.2,30.20,SW,224,0.0,0.0,86,0.00,,,0.00,Wunderground v.1.15,2013-01-17 11:19:00,
2013-01-17 06:29:00,27.6,24.2,30.20,SW,224,0.0,0.0,87,0.00,,,0.00,Wunderground v.1.15,2013-01-17 11:29:00,
2013-01-17 06:39:00,27.6,24.0,30.20,SW,224,0.0,0.0,86,0.00,,,0.00,Wunderground v.1.15,2013-01-17 11:39:00,
2013-01-17 06:49:00,27.5,23.9,30.20,SW,224,0.0,0.0,86,0.00,,,0.00,Wunderground v.1.15,2013-01-17 11:49:00,
2013-01-17 06:59:00,27.4,24.0,30.21,SW,224,0.0,0.0,87,0.00,,,0.00,Wunderground v.1.15,2013-01-17 11:59:00,
2013-01-17 07:09:00,27.6,24.2,30.21,SW,224,0.0,0.0,87,0.00,,,0.00,Wunderground v.1.15,2013-01-17 12:09:00,
2013-01-17 07:19:00,27.6,24.0,30.22,SW,224,0.0,0.0,86,0.00,,,0.00,Wunderground v.1.15,2013-01-17 12:19:00,
2013-01-17 07:29:00,27.7,24.1,30.23,SW,224,0.0,0.0,86,0.00,,,0.00,Wunderground v.1.15,2013-01-17 12:29:00,
2013-01-17 07:34:00,27.7,24.1,30.23,SW,224,0.0,0.0,86,0.00,,,0.00,Wunderground v.1.15,2013-01-17 12:34:00,
2013-01-17 07:40:00,27.6,23.7,30.23,SW,224,0.0,0.0,85,0.00,,,0.00,Wunderground v.1.15,2013-01-17 12:40:00,
2013-01-17 07:50:00,27.7,24.1,30.23,SW,224,0.0,0.0,86,0.00,,,0.00,Wunderground v.1.15,2013-01-17 12:50:00,
2013-01-17 07:56:00,27.8,24.2,30.23,West,270,0.0,0.0,86,0.00,,,0.00,Wunderground v.1.15,2013-01-17 12:56:00,
2013-01-17 08:11:00,27.9,24.0,30.24,West,270,1.0,1.0,85,0.00,,,0.00,Wunderground v.1.15,2013-01-17 13:11:00,
2013-01-17 08:20:00,28.0,24.1,30.24,NNW,331,0.0,0.0,85,0.00,,,0.00,Wunderground v.1.15,2013-01-17 13:20:00,
2013-01-17 08:26:00,28.1,24.2,30.24,NNW,331,0.0,0.0,85,0.00,,,0.00,Wunderground v.1.15,2013-01-17 13:26:00,
2013-01-17 08:40:00,28.1,24.2,30.25,NNW,331,0.0,0.0,85,0.00,,,0.00,Wunderground v.1.15,2013-01-17 13:40:00,
2013-01-17 08:51:00,28.3,24.6,30.26,ENE,72,2.0,2.0,86,0.00,,,0.00,Wunderground v.1.15,2013-01-17 13:51:00,
2013-01-17 09:01:00,28.5,24.8,30.27,ENE,72,0.0,0.0,86,0.00,,,0.00,Wunderground v.1.15,2013-01-17 14:01:00,
2013-01-17 09:10:00,28.8,25.4,30.27,ENE,72,0.0,0.0,87,0.00,,,0.00,Wunderground v.1.15,2013-01-17 14:10:00,
2013-01-17 09:21:00,29.1,25.4,30.28,ENE,72,0.0,0.0,86,0.00,,,0.00,Wunderground v.1.15,2013-01-17 14:21:00,
2013-01-17 09:31:00,29.5,25.8,30.28,ENE,72,0.0,0.0,86,0.00,,,0.00,Wunderground v.1.15,2013-01-17 14:31:00,
2013-01-17 09:41:00,29.9,25.9,30.28,ENE,72,0.0,0.0,85,0.00,,,0.00,Wunderground v.1.15,2013-01-17 14:41:00,
2013-01-17 09:51:00,30.4,26.7,30.28,North,355,2.0,2.0,86,0.00,,,0.00,Wunderground v.1.15,2013-01-17 14:51:00,
2013-01-17 10:01:00,30.7,26.7,30.28,NNW,343,3.0,3.0,85,0.00,,,0.00,Wunderground v.1.15,2013-01-17 15:01:00,
2013-01-17 10:11:00,31.0,27.0,30.28,NNW,342,2.0,2.0,85,0.00,,,0.00,Wunderground v.1.15,2013-01-17 15:11:00,
2013-01-17 10:21:00,31.3,27.3,30.28,NNW,342,2.0,2.0,85,0.00,,,0.00,Wunderground v.1.15,2013-01-17 15:21:00,
2013-01-17 10:31:00,31.6,27.3,30.28,NNW,342,1.0,3.0,84,0.00,,,0.00,Wunderground v.1.15,2013-01-17 15:31:00,
2013-01-17 10:41:00,32.1,27.8,30.27,NNW,342,2.0,3.0,84,0.00,,,0.00,Wunderground v.1.15,2013-01-17 15:41:00,
2013-01-17 10:46:00,32.6,28.0,30.27,North,11,2.0,3.0,83,0.00,,,0.00,Wunderground v.1.15,2013-01-17 15:46:00,
2013-01-17 11:01:00,34.1,28.9,30.27,NNE,13,2.0,2.0,81,0.00,,,0.00,Wunderground v.1.15,2013-01-17 16:01:00,
2013-01-17 11:11:00,34.7,29.2,30.27,NNE,33,1.0,1.0,80,0.00,,,0.00,Wunderground v.1.15,2013-01-17 16:11:00,
2013-01-17 11:21:00,35.3,29.4,30.27,NE,35,1.0,3.0,79,0.00,,,0.00,Wunderground v.1.15,2013-01-17 16:21:00,
2013-01-17 11:31:00,35.7,29.5,30.27,NE,35,1.0,1.0,78,0.00,,,0.00,Wunderground v.1.15,2013-01-17 16:31:00,
2013-01-17 11:41:00,36.6,30.4,30.26,NNW,346,1.0,1.0,78,0.00,,,0.00,Wunderground v.1.15,2013-01-17 16:41:00,
2013-01-17 11:51:00,37.3,30.4,30.26,NNE,19,3.0,3.0,76,0.00,,,0.00,Wunderground v.1.15,2013-01-17 16:51:00,
2013-01-17 12:01:00,37.8,30.6,30.25,NNW,336,4.0,5.0,75,0.00,,,0.00,Wunderground v.1.15,2013-01-17 17:01:00,
2013-01-17 12:11:00,38.3,31.1,30.25,NNW,344,5.0,5.0,75,0.00,,,0.00,Wunderground v.1.15,2013-01-17 17:11:00,
2013-01-17 12:21:00,39.2,31.9,30.24,NNW,342,4.0,6.0,75,0.00,,,0.00,Wunderground v.1.15,2013-01-17 17:21:00,
2013-01-17 12:31:00,39.8,31.5,30.23,North,351,5.0,6.0,72,0.00,,,0.00,Wunderground v.1.15,2013-01-17 17:31:00,
2013-01-17 12:41:00,39.9,31.9,30.22,North,11,6.0,6.0,73,0.00,,,0.00,Wunderground v.1.15,2013-01-17 17:41:00,
2013-01-17 12:51:00,40.6,31.9,30.21,North,349,4.0,4.0,71,0.00,,,0.00,Wunderground v.1.15,2013-01-17 17:51:00,
2013-01-17 13:01:00,40.7,31.3,30.20,NNW,348,7.0,7.0,69,0.00,,,0.00,Wunderground v.1.15,2013-01-17 18:01:00,
2013-01-17 13:11:00,40.5,31.5,30.21,WNW,300,7.0,7.0,70,0.00,,,0.00,Wunderground v.1.15,2013-01-17 18:11:00,
2013-01-17 13:21:00,40.3,31.3,30.20,NNW,339,6.0,6.0,70,0.00,,,0.00,Wunderground v.1.15,2013-01-17 18:21:00,
2013-01-17 13:31:00,40.5,30.4,30.19,NNW,341,8.0,8.0,67,0.00,,,0.00,Wunderground v.1.15,2013-01-17 18:31:00,
2013-01-17 13:41:00,40.4,31.0,30.19,NNW,342,7.0,7.0,69,0.00,,,0.00,Wunderground v.1.15,2013-01-17 18:41:00,
2013-01-17 13:51:00,40.2,30.1,30.19,NNW,346,7.0,7.0,67,0.00,,,0.00,Wunderground v.1.15,2013-01-17 18:51:00,
2013-01-17 14:01:00,40.2,31.5,30.19,NNE,13,6.0,6.0,71,0.00,,,0.00,Wunderground v.1.15,2013-01-17 19:01:00,
2013-01-17 14:11:00,41.0,30.9,30.19,North,11,5.0,5.0,67,0.00,,,0.00,Wunderground v.1.15,2013-01-17 19:11:00,
2013-01-17 14:21:00,41.1,31.0,30.19,NNW,341,5.0,5.0,67,0.00,,,0.00,Wunderground v.1.15,2013-01-17 19:21:00,
2013-01-17 14:31:00,41.5,31.0,30.19,NE,49,7.0,7.0,66,0.00,,,0.00,Wunderground v.1.15,2013-01-17 19:31:00,
2013-01-17 14:41:00,41.1,30.6,30.19,NW,304,6.0,6.0,66,0.00,,,0.00,Wunderground v.1.15,2013-01-17 19:41:00,
2013-01-17 14:52:00,41.3,29.6,30.19,NNW,343,6.0,8.0,63,0.00,,,0.00,Wunderground v.1.15,2013-01-17 19:52:00,
2013-01-17 15:01:00,41.6,30.3,30.20,NNW,328,5.0,5.0,64,0.00,,,0.00,Wunderground v.1.15,2013-01-17 20:01:00,
2013-01-17 15:12:00,41.6,29.9,30.21,North,5,6.0,9.0,63,0.00,,,0.00,Wunderground v.1.15,2013-01-17 20:12:00,
2013-01-17 15:22:00,41.4,29.7,30.21,North,360,6.0,6.0,63,0.00,,,0.00,Wunderground v.1.15,2013-01-17 20:22:00,
2013-01-17 15:31:00,41.0,29.4,30.21,NNW,346,8.0,8.0,63,0.00,,,0.00,Wunderground v.1.15,2013-01-17 20:31:00,
2013-01-17 15:41:00,40.6,28.6,30.21,North,355,7.0,7.0,62,0.00,,,0.00,Wunderground v.1.15,2013-01-17 20:41:00,
2013-01-17 15:51:00,40.7,28.7,30.21,WNW,291,6.0,7.0,62,0.00,,,0.00,Wunderground v.1.15,2013-01-17 20:51:00,
2013-01-17 16:01:00,40.2,28.6,30.21,North,355,7.0,7.0,63,0.00,,,0.00,Wunderground v.1.15,2013-01-17 21:01:00,
2013-01-17 16:12:00,39.8,27.4,30.21,NNW,332,8.0,8.0,61,0.00,,,0.00,Wunderground v.1.15,2013-01-17 21:12:00,
2013-01-17 16:22:00,39.2,26.9,30.22,NNW,331,8.0,8.0,61,0.00,,,0.00,Wunderground v.1.15,2013-01-17 21:22:00,
2013-01-17 16:32:00,38.8,27.3,30.22,NNW,328,8.0,10.0,63,0.00,,,0.00,Wunderground v.1.15,2013-01-17 21:32:00,
2013-01-17 16:42:00,38.7,27.6,30.22,NNW,330,6.0,7.0,64,0.00,,,0.00,Wunderground v.1.15,2013-01-17 21:42:00,
2013-01-17 16:47:00,38.7,27.9,30.22,WNW,292,5.0,7.0,65,0.00,,,0.00,Wunderground v.1.15,2013-01-17 21:47:00,
2013-01-17 16:57:00,38.2,27.5,30.23,North,355,5.0,7.0,65,0.00,,,0.00,Wunderground v.1.15,2013-01-17 21:57:00,
2013-01-17 17:12:00,37.3,26.6,30.25,WNW,302,6.0,6.0,65,0.00,,,0.00,Wunderground v.1.15,2013-01-17 22:12:00,
2013-01-17 17:22:00,36.8,26.1,30.27,NW,313,6.0,6.0,65,0.00,,,0.00,Wunderground v.1.15,2013-01-17 22:22:00,
2013-01-17 17:32:00,36.4,26.1,30.28,NW,324,6.0,6.0,66,0.00,,,0.00,Wunderground v.1.15,2013-01-17 22:32:00,
2013-01-17 17:42:00,36.1,25.8,30.28,NW,313,4.0,4.0,66,0.00,,,0.00,Wunderground v.1.15,2013-01-17 22:42:00,
2013-01-17 17:52:00,35.7,25.1,30.29,WNW,303,4.0,4.0,65,0.00,,,0.00,Wunderground v.1.15,2013-01-17 22:52:00,
2013-01-17 18:02:00,35.4,25.2,30.30,NNW,336,4.0,4.0,66,0.00,,,0.00,Wunderground v.1.15,2013-01-17 23:02:00,
2013-01-17 18:12:00,34.9,25.4,30.31,North,349,3.0,6.0,68,0.00,,,0.00,Wunderground v.1.15,2013-01-17 23:12:00,
2013-01-17 18:22:00,34.4,24.9,30.31,NW,321,4.0,4.0,68,0.00,,,0.00,Wunderground v.1.15,2013-01-17 23:22:00,
2013-01-17 18:32:00,34.3,24.8,30.32,North,350,4.0,7.0,68,0.00,,,0.00,Wunderground v.1.15,2013-01-17 23:32:00,
2013-01-17 18:42:00,34.0,24.9,30.32,NW,326,4.0,4.0,69,0.00,,,0.00,Wunderground v.1.15,2013-01-17 23:42:00,
2013-01-17 18:52:00,33.5,24.8,30.33,NNW,329,1.0,1.0,70,0.00,,,0.00,Wunderground v.1.15,2013-01-17 23:52:00,
2013-01-17 19:02:00,32.9,24.5,30.33,NNW,329,0.0,0.0,71,0.00,,,0.00,Wunderground v.1.15,2013-01-18 00:02:00,
2013-01-17 19:12:00,32.6,24.6,30.34,NW,306,2.0,4.0,72,0.00,,,0.00,Wunderground v.1.15,2013-01-18 00:12:00,
2013-01-17 19:22:00,32.5,24.5,30.34,NNW,343,3.0,3.0,72,0.00,,,0.00,Wunderground v.1.15,2013-01-18 00:22:00,
2013-01-17 19:32:00,32.4,24.0,30.35,NNW,338,3.0,5.0,71,0.00,,,0.00,Wunderground v.1.15,2013-01-18 00:32:00,
2013-01-17 19:42:00,32.1,24.1,30.35,WNW,298,3.0,3.0,72,0.00,,,0.00,Wunderground v.1.15,2013-01-18 00:42:00,
2013-01-17 19:52:00,31.7,23.7,30.36,NNW,333,2.0,2.0,72,0.00,,,0.00,Wunderground v.1.15,2013-01-18 00:52:00,
2013-01-17 20:02:00,31.4,23.7,30.37,NNW,331,2.0,2.0,73,0.00,,,0.00,Wunderground v.1.15,2013-01-18 01:02:00,
2013-01-17 20:12:00,31.2,23.5,30.37,West,276,2.0,2.0,73,0.00,,,0.00,Wunderground v.1.15,2013-01-18 01:12:00,
2013-01-17 20:22:00,30.9,23.6,30.37,West,276,1.0,1.0,74,0.00,,,0.00,Wunderground v.1.15,2013-01-18 01:22:00,
2013-01-17 20:32:00,30.6,23.6,30.38,WNW,302,2.0,6.0,75,0.00,,,0.00,Wunderground v.1.15,2013-01-18 01:32:00,
2013-01-17 20:42:00,30.4,23.4,30.38,NW,315,2.0,2.0,75,0.00,,,0.00,Wunderground v.1.15,2013-01-18 01:42:00,
2013-01-17 20:52:00,30.1,23.1,30.39,NW,318,2.0,2.0,75,0.00,,,0.00,Wunderground v.1.15,2013-01-18 01:52:00,
2013-01-17 21:03:00,29.8,23.2,30.40,NW,305,1.0,4.0,76,0.00,,,0.00,Wunderground v.1.15,2013-01-18 02:03:00,
2013-01-17 21:13:00,29.3,22.7,30.40,WNW,301,2.0,2.0,76,0.00,,,0.00,Wunderground v.1.15,2013-01-18 02:13:00,
2013-01-17 21:22:00,29.0,22.4,30.41,NW,309,2.0,2.0,76,0.00,,,0.00,Wunderground v.1.15,2013-01-18 02:22:00,
2013-01-17 21:32:00,28.8,21.9,30.41,West,267,3.0,3.0,75,0.00,,,0.00,Wunderground v.1.15,2013-01-18 02:32:00,
2013-01-17 21:42:00,28.5,21.6,30.41,NW,326,2.0,2.0,75,0.00,,,0.00,Wunderground v.1.15,2013-01-18 02:42:00,
2013-01-17 21:52:00,28.4,21.5,30.42,NW,308,4.0,4.0,75,0.00,,,0.00,Wunderground v.1.15,2013-01-18 02:52:00,
2013-01-17 22:02:00,28.1,21.2,30.42,WNW,301,3.0,4.0,75,0.00,,,0.00,Wunderground v.1.15,2013-01-18 03:02:00,
2013-01-17 22:12:00,27.9,21.0,30.42,NW,321,3.0,3.0,75,0.00,,,0.00,Wunderground v.1.15,2013-01-18 03:12:00,
2013-01-17 22:22:00,27.5,20.6,30.43,WNW,294,3.0,3.0,75,0.00,,,0.00,Wunderground v.1.15,2013-01-18 03:22:00,
2013-01-17 22:32:00,27.1,20.5,30.43,West,279,2.0,3.0,76,0.00,,,0.00,Wunderground v.1.15,2013-01-18 03:32:00,
2013-01-17 22:42:00,26.8,20.6,30.43,NW,325,2.0,2.0,77,0.00,,,0.00,Wunderground v.1.15,2013-01-18 03:42:00,
2013-01-17 22:52:00,26.5,20.3,30.43,WNW,288,2.0,4.0,77,0.00,,,0.00,Wunderground v.1.15,2013-01-18 03:52:00,
2013-01-17 23:02:00,26.4,20.2,30.44,WNW,283,3.0,4.0,77,0.00,,,0.00,Wunderground v.1.15,2013-01-18 04:02:00,
2013-01-17 23:08:00,26.3,20.1,30.44,WNW,302,3.0,4.0,77,0.00,,,0.00,Wunderground v.1.15,2013-01-18 04:08:00,
2013-01-17 23:22:00,26.0,18.8,30.45,NNW,342,5.0,5.0,74,0.00,,,0.00,Wunderground v.1.15,2013-01-18 04:22:00,
2013-01-17 23:33:00,25.6,19.1,30.45,NW,325,2.0,2.0,76,0.00,,,0.00,Wunderground v.1.15,2013-01-18 04:33:00,
2013-01-17 23:42:00,25.3,18.5,30.45,NW,320,3.0,5.0,75,0.00,,,0.00,Wunderground v.1.15,2013-01-18 04:42:00,
2013-01-17 23:53:00,25.2,17.4,30.47,NNW,338,5.0,5.0,72,0.00,,,0.00,Wunderground v.1.15,2013-01-18 04:53:00,